sensor_id;sensor_type;location;lat;lon;timestamp;temperature;humidity
17208;DHT22;8720;48.488;9.202;2023-05-27T00:02:08;16.70;48.20
17208;DHT22;8720;48.488;9.202;2023-05-27T00:04:35;16.70;48.30
17208;DHT22;8720;48.488;9.202;2023-05-27T00:07:03;16.60;48.40
17208;DHT22;8720;48.488;9.202;2023-05-27T00:09:31;16.60;48.40
17208;DHT22;8720;48.488;9.202;2023-05-27T00:11:58;16.50;48.30
17208;DHT22;8720;48.488;9.202;2023-05-27T00:14:26;16.50;48.40
17208;DHT22;8720;48.488;9.202;2023-05-27T00:16:55;16.50;48.50
17208;DHT22;8720;48.488;9.202;2023-05-27T00:19:22;16.40;48.80
17208;DHT22;8720;48.488;9.202;2023-05-27T00:21:54;16.40;48.90
17208;DHT22;8720;48.488;9.202;2023-05-27T00:24:21;16.40;49.30
17208;DHT22;8720;48.488;9.202;2023-05-27T00:26:49;16.30;48.80
17208;DHT22;8720;48.488;9.202;2023-05-27T00:29:16;16.30;49.00
17208;DHT22;8720;48.488;9.202;2023-05-27T00:31:44;16.20;48.80
17208;DHT22;8720;48.488;9.202;2023-05-27T00:34:13;16.20;48.80
17208;DHT22;8720;48.488;9.202;2023-05-27T00:36:40;16.20;48.90
17208;DHT22;8720;48.488;9.202;2023-05-27T00:39:07;16.10;48.50
17208;DHT22;8720;48.488;9.202;2023-05-27T00:41:35;16.10;48.60
17208;DHT22;8720;48.488;9.202;2023-05-27T00:44:02;16.10;48.60
17208;DHT22;8720;48.488;9.202;2023-05-27T00:46:30;16.10;48.60
17208;DHT22;8720;48.488;9.202;2023-05-27T00:48:57;16.00;48.40
17208;DHT22;8720;48.488;9.202;2023-05-27T00:51:26;16.00;48.60
17208;DHT22;8720;48.488;9.202;2023-05-27T00:53:53;16.00;48.80
17208;DHT22;8720;48.488;9.202;2023-05-27T00:56:22;16.00;48.60
17208;DHT22;8720;48.488;9.202;2023-05-27T00:58:51;16.00;48.50
17208;DHT22;8720;48.488;9.202;2023-05-27T01:01:18;16.00;48.60
17208;DHT22;8720;48.488;9.202;2023-05-27T01:03:46;15.90;48.50
17208;DHT22;8720;48.488;9.202;2023-05-27T01:06:20;15.90;48.30
17208;DHT22;8720;48.488;9.202;2023-05-27T01:09:03;15.90;48.60
17208;DHT22;8720;48.488;9.202;2023-05-27T01:11:41;15.90;48.40
17208;DHT22;8720;48.488;9.202;2023-05-27T01:14:13;15.90;48.30
17208;DHT22;8720;48.488;9.202;2023-05-27T01:16:44;15.80;48.20
17208;DHT22;8720;48.488;9.202;2023-05-27T01:19:17;15.80;48.00
17208;DHT22;8720;48.488;9.202;2023-05-27T01:21:59;15.80;47.80
17208;DHT22;8720;48.488;9.202;2023-05-27T01:24:29;15.80;47.80
17208;DHT22;8720;48.488;9.202;2023-05-27T01:26:56;15.70;47.50
17208;DHT22;8720;48.488;9.202;2023-05-27T01:29:26;15.70;47.50
17208;DHT22;8720;48.488;9.202;2023-05-27T01:31:57;15.70;47.50
17208;DHT22;8720;48.488;9.202;2023-05-27T01:34:36;15.70;47.60
17208;DHT22;8720;48.488;9.202;2023-05-27T01:37:10;15.70;47.60
17208;DHT22;8720;48.488;9.202;2023-05-27T01:39:46;15.60;47.50
17208;DHT22;8720;48.488;9.202;2023-05-27T01:42:17;15.70;47.50
17208;DHT22;8720;48.488;9.202;2023-05-27T01:44:46;15.60;47.50
17208;DHT22;8720;48.488;9.202;2023-05-27T01:47:13;15.60;47.40
17208;DHT22;8720;48.488;9.202;2023-05-27T01:49:41;15.60;47.30
17208;DHT22;8720;48.488;9.202;2023-05-27T01:52:08;15.60;47.30
17208;DHT22;8720;48.488;9.202;2023-05-27T01:54:35;15.60;47.40
17208;DHT22;8720;48.488;9.202;2023-05-27T01:57:04;15.50;47.50
17208;DHT22;8720;48.488;9.202;2023-05-27T01:59:32;15.50;47.90
17208;DHT22;8720;48.488;9.202;2023-05-27T02:02:00;15.40;47.90
17208;DHT22;8720;48.488;9.202;2023-05-27T02:04:28;15.40;48.00
17208;DHT22;8720;48.488;9.202;2023-05-27T02:06:55;15.40;47.90
17208;DHT22;8720;48.488;9.202;2023-05-27T02:09:24;15.30;48.00
17208;DHT22;8720;48.488;9.202;2023-05-27T02:11:53;15.30;48.10
17208;DHT22;8720;48.488;9.202;2023-05-27T02:14:21;15.30;48.20
17208;DHT22;8720;48.488;9.202;2023-05-27T02:16:50;15.20;48.40
17208;DHT22;8720;48.488;9.202;2023-05-27T02:19:17;15.20;48.40
17208;DHT22;8720;48.488;9.202;2023-05-27T02:21:46;15.10;48.50
17208;DHT22;8720;48.488;9.202;2023-05-27T02:24:13;15.10;48.60
17208;DHT22;8720;48.488;9.202;2023-05-27T02:26:41;15.00;48.80
17208;DHT22;8720;48.488;9.202;2023-05-27T02:29:08;15.00;49.10
17208;DHT22;8720;48.488;9.202;2023-05-27T02:31:37;14.90;49.30
17208;DHT22;8720;48.488;9.202;2023-05-27T02:34:05;14.90;49.40
17208;DHT22;8720;48.488;9.202;2023-05-27T02:36:32;14.80;49.30
17208;DHT22;8720;48.488;9.202;2023-05-27T02:39:00;14.80;49.50
17208;DHT22;8720;48.488;9.202;2023-05-27T02:41:28;14.70;49.20
17208;DHT22;8720;48.488;9.202;2023-05-27T02:43:56;14.70;49.20
17208;DHT22;8720;48.488;9.202;2023-05-27T02:46:23;14.70;49.40
17208;DHT22;8720;48.488;9.202;2023-05-27T02:48:52;14.60;49.30
17208;DHT22;8720;48.488;9.202;2023-05-27T02:51:19;14.50;49.50
17208;DHT22;8720;48.488;9.202;2023-05-27T02:53:48;14.50;50.20
17208;DHT22;8720;48.488;9.202;2023-05-27T02:56:16;14.50;49.60
17208;DHT22;8720;48.488;9.202;2023-05-27T02:58:44;14.50;49.80
17208;DHT22;8720;48.488;9.202;2023-05-27T03:01:11;14.50;49.60
17208;DHT22;8720;48.488;9.202;2023-05-27T03:03:38;14.40;49.50
17208;DHT22;8720;48.488;9.202;2023-05-27T03:06:07;14.40;49.30
17208;DHT22;8720;48.488;9.202;2023-05-27T03:08:35;14.40;49.60
17208;DHT22;8720;48.488;9.202;2023-05-27T03:11:03;14.40;49.50
17208;DHT22;8720;48.488;9.202;2023-05-27T03:13:30;14.30;49.50
17208;DHT22;8720;48.488;9.202;2023-05-27T03:15:57;14.30;49.50
17208;DHT22;8720;48.488;9.202;2023-05-27T03:18:26;14.30;49.50
17208;DHT22;8720;48.488;9.202;2023-05-27T03:20:53;14.20;49.50
17208;DHT22;8720;48.488;9.202;2023-05-27T03:23:22;14.30;49.80
17208;DHT22;8720;48.488;9.202;2023-05-27T03:25:50;14.20;50.00
17208;DHT22;8720;48.488;9.202;2023-05-27T03:28:17;14.20;49.90
17208;DHT22;8720;48.488;9.202;2023-05-27T03:30:44;14.20;49.90
17208;DHT22;8720;48.488;9.202;2023-05-27T03:33:23;14.10;49.90
17208;DHT22;8720;48.488;9.202;2023-05-27T03:35:51;14.10;50.00
17208;DHT22;8720;48.488;9.202;2023-05-27T03:38:22;14.10;50.10
17208;DHT22;8720;48.488;9.202;2023-05-27T03:40:50;14.00;50.40
17208;DHT22;8720;48.488;9.202;2023-05-27T03:43:17;14.00;50.40
17208;DHT22;8720;48.488;9.202;2023-05-27T03:45:44;14.00;50.70
17208;DHT22;8720;48.488;9.202;2023-05-27T03:48:11;13.90;50.80
17208;DHT22;8720;48.488;9.202;2023-05-27T03:50:39;13.90;51.00
17208;DHT22;8720;48.488;9.202;2023-05-27T03:53:07;13.90;51.10
17208;DHT22;8720;48.488;9.202;2023-05-27T03:55:36;13.90;51.20
17208;DHT22;8720;48.488;9.202;2023-05-27T03:58:03;13.90;51.40
17208;DHT22;8720;48.488;9.202;2023-05-27T04:00:32;13.80;51.30
17208;DHT22;8720;48.488;9.202;2023-05-27T04:03:02;13.80;51.40
17208;DHT22;8720;48.488;9.202;2023-05-27T04:05:29;13.80;52.10
17208;DHT22;8720;48.488;9.202;2023-05-27T04:07:58;13.80;51.60
17208;DHT22;8720;48.488;9.202;2023-05-27T04:10:25;13.80;51.70
17208;DHT22;8720;48.488;9.202;2023-05-27T04:12:57;13.80;51.80
17208;DHT22;8720;48.488;9.202;2023-05-27T04:15:24;13.80;51.90
17208;DHT22;8720;48.488;9.202;2023-05-27T04:17:52;13.80;52.40
17208;DHT22;8720;48.488;9.202;2023-05-27T04:20:19;13.80;51.80
17208;DHT22;8720;48.488;9.202;2023-05-27T04:22:51;13.80;51.80
17208;DHT22;8720;48.488;9.202;2023-05-27T04:25:19;13.80;51.70
17208;DHT22;8720;48.488;9.202;2023-05-27T04:28:01;13.80;51.70
17208;DHT22;8720;48.488;9.202;2023-05-27T04:30:31;13.90;51.90
17208;DHT22;8720;48.488;9.202;2023-05-27T04:32:59;13.90;51.90
17208;DHT22;8720;48.488;9.202;2023-05-27T04:35:26;14.00;52.10
17208;DHT22;8720;48.488;9.202;2023-05-27T04:37:57;14.00;52.20
17208;DHT22;8720;48.488;9.202;2023-05-27T04:40:31;14.20;52.70
17208;DHT22;8720;48.488;9.202;2023-05-27T04:43:18;14.40;53.10
17208;DHT22;8720;48.488;9.202;2023-05-27T04:45:45;14.70;54.00
17208;DHT22;8720;48.488;9.202;2023-05-27T04:48:13;15.10;53.70
17208;DHT22;8720;48.488;9.202;2023-05-27T04:50:41;15.50;53.70
17208;DHT22;8720;48.488;9.202;2023-05-27T04:53:08;16.00;53.60
17208;DHT22;8720;48.488;9.202;2023-05-27T04:55:36;16.40;53.10
17208;DHT22;8720;48.488;9.202;2023-05-27T04:58:04;16.90;52.80
17208;DHT22;8720;48.488;9.202;2023-05-27T05:00:33;17.30;52.20
17208;DHT22;8720;48.488;9.202;2023-05-27T05:03:05;17.80;51.50
17208;DHT22;8720;48.488;9.202;2023-05-27T05:05:34;18.30;51.30
17208;DHT22;8720;48.488;9.202;2023-05-27T05:08:02;18.70;50.60
17208;DHT22;8720;48.488;9.202;2023-05-27T05:10:30;19.20;49.80
17208;DHT22;8720;48.488;9.202;2023-05-27T05:12:58;19.70;49.10
17208;DHT22;8720;48.488;9.202;2023-05-27T05:15:26;20.10;48.10
17208;DHT22;8720;48.488;9.202;2023-05-27T05:17:56;20.50;48.10
17208;DHT22;8720;48.488;9.202;2023-05-27T05:20:24;20.90;46.80
17208;DHT22;8720;48.488;9.202;2023-05-27T05:22:51;21.20;46.30
17208;DHT22;8720;48.488;9.202;2023-05-27T05:25:18;21.60;45.90
17208;DHT22;8720;48.488;9.202;2023-05-27T05:27:48;21.90;45.40
17208;DHT22;8720;48.488;9.202;2023-05-27T05:30:16;22.20;44.90
17208;DHT22;8720;48.488;9.202;2023-05-27T05:32:43;22.50;44.30
17208;DHT22;8720;48.488;9.202;2023-05-27T05:35:12;22.80;44.00
17208;DHT22;8720;48.488;9.202;2023-05-27T05:37:44;23.10;42.80
17208;DHT22;8720;48.488;9.202;2023-05-27T05:40:12;23.40;42.70
17208;DHT22;8720;48.488;9.202;2023-05-27T05:42:50;23.60;42.20
17208;DHT22;8720;48.488;9.202;2023-05-27T05:45:18;23.90;41.70
17208;DHT22;8720;48.488;9.202;2023-05-27T05:47:46;24.00;41.10
17208;DHT22;8720;48.488;9.202;2023-05-27T05:50:19;24.10;40.30
17208;DHT22;8720;48.488;9.202;2023-05-27T05:52:47;24.20;39.70
17208;DHT22;8720;48.488;9.202;2023-05-27T05:55:14;24.20;39.70
17208;DHT22;8720;48.488;9.202;2023-05-27T05:57:41;24.30;39.60
17208;DHT22;8720;48.488;9.202;2023-05-27T06:00:10;24.30;39.60
17208;DHT22;8720;48.488;9.202;2023-05-27T06:02:44;24.50;39.20
17208;DHT22;8720;48.488;9.202;2023-05-27T06:05:32;24.60;39.40
17208;DHT22;8720;48.488;9.202;2023-05-27T06:07:59;24.80;39.40
17208;DHT22;8720;48.488;9.202;2023-05-27T06:10:26;24.90;39.10
17208;DHT22;8720;48.488;9.202;2023-05-27T06:12:54;25.10;38.90
17208;DHT22;8720;48.488;9.202;2023-05-27T06:15:21;25.20;38.60
17208;DHT22;8720;48.488;9.202;2023-05-27T06:17:49;25.50;38.40
17208;DHT22;8720;48.488;9.202;2023-05-27T06:20:16;25.70;37.90
17208;DHT22;8720;48.488;9.202;2023-05-27T06:22:45;25.80;37.60
17208;DHT22;8720;48.488;9.202;2023-05-27T06:25:31;26.00;37.10
17208;DHT22;8720;48.488;9.202;2023-05-27T06:28:03;26.20;37.00
17208;DHT22;8720;48.488;9.202;2023-05-27T06:30:31;26.30;36.70
17208;DHT22;8720;48.488;9.202;2023-05-27T06:33:01;26.40;36.20
17208;DHT22;8720;48.488;9.202;2023-05-27T06:35:30;26.60;36.80
17208;DHT22;8720;48.488;9.202;2023-05-27T06:37:59;26.60;35.80
17208;DHT22;8720;48.488;9.202;2023-05-27T06:40:27;26.70;35.30
17208;DHT22;8720;48.488;9.202;2023-05-27T06:42:55;26.80;35.60
17208;DHT22;8720;48.488;9.202;2023-05-27T06:45:37;26.90;35.30
17208;DHT22;8720;48.488;9.202;2023-05-27T06:48:24;26.90;35.90
17208;DHT22;8720;48.488;9.202;2023-05-27T06:50:52;27.00;35.20
17208;DHT22;8720;48.488;9.202;2023-05-27T06:53:21;27.10;35.00
17208;DHT22;8720;48.488;9.202;2023-05-27T06:56:00;27.20;34.60
17208;DHT22;8720;48.488;9.202;2023-05-27T06:58:48;27.20;35.00
17208;DHT22;8720;48.488;9.202;2023-05-27T07:01:17;27.30;35.00
17208;DHT22;8720;48.488;9.202;2023-05-27T07:03:49;27.40;34.80
17208;DHT22;8720;48.488;9.202;2023-05-27T07:06:24;27.50;34.40
17208;DHT22;8720;48.488;9.202;2023-05-27T07:08:55;27.60;34.40
17208;DHT22;8720;48.488;9.202;2023-05-27T07:11:29;27.70;34.00
17208;DHT22;8720;48.488;9.202;2023-05-27T07:14:01;27.70;33.90
17208;DHT22;8720;48.488;9.202;2023-05-27T07:16:31;27.80;34.00
17208;DHT22;8720;48.488;9.202;2023-05-27T07:18:59;27.80;34.00
17208;DHT22;8720;48.488;9.202;2023-05-27T07:21:29;27.80;33.70
17208;DHT22;8720;48.488;9.202;2023-05-27T07:24:01;27.90;33.80
17208;DHT22;8720;48.488;9.202;2023-05-27T07:26:33;27.90;33.90
17208;DHT22;8720;48.488;9.202;2023-05-27T07:29:01;27.90;32.90
17208;DHT22;8720;48.488;9.202;2023-05-27T07:31:54;27.90;32.70
17208;DHT22;8720;48.488;9.202;2023-05-27T07:34:29;27.90;32.90
17208;DHT22;8720;48.488;9.202;2023-05-27T07:36:57;27.90;33.00
17208;DHT22;8720;48.488;9.202;2023-05-27T07:39:26;27.90;32.70
17208;DHT22;8720;48.488;9.202;2023-05-27T07:41:54;27.80;32.30
17208;DHT22;8720;48.488;9.202;2023-05-27T07:44:22;27.90;32.70
17208;DHT22;8720;48.488;9.202;2023-05-27T07:46:50;27.80;32.80
17208;DHT22;8720;48.488;9.202;2023-05-27T07:49:17;27.80;33.00
17208;DHT22;8720;48.488;9.202;2023-05-27T07:52:00;27.90;32.80
17208;DHT22;8720;48.488;9.202;2023-05-27T07:54:29;27.90;32.70
17208;DHT22;8720;48.488;9.202;2023-05-27T07:56:56;27.90;32.30
17208;DHT22;8720;48.488;9.202;2023-05-27T07:59:24;27.80;32.60
17208;DHT22;8720;48.488;9.202;2023-05-27T08:01:51;27.80;32.70
17208;DHT22;8720;48.488;9.202;2023-05-27T08:04:19;27.70;32.60
17208;DHT22;8720;48.488;9.202;2023-05-27T08:06:59;27.70;33.00
17208;DHT22;8720;48.488;9.202;2023-05-27T08:09:32;27.60;32.80
17208;DHT22;8720;48.488;9.202;2023-05-27T08:12:20;27.60;32.50
17208;DHT22;8720;48.488;9.202;2023-05-27T08:14:56;27.40;32.70
17208;DHT22;8720;48.488;9.202;2023-05-27T08:17:27;27.40;32.90
17208;DHT22;8720;48.488;9.202;2023-05-27T08:20:11;27.30;33.30
17208;DHT22;8720;48.488;9.202;2023-05-27T08:22:56;27.20;33.00
17208;DHT22;8720;48.488;9.202;2023-05-27T08:25:46;27.20;33.00
17208;DHT22;8720;48.488;9.202;2023-05-27T08:28:42;27.10;32.80
17208;DHT22;8720;48.488;9.202;2023-05-27T08:31:30;27.10;33.20
17208;DHT22;8720;48.488;9.202;2023-05-27T08:34:00;27.10;33.20
17208;DHT22;8720;48.488;9.202;2023-05-27T08:36:30;27.00;32.90
17208;DHT22;8720;48.488;9.202;2023-05-27T08:38:59;27.00;32.90
17208;DHT22;8720;48.488;9.202;2023-05-27T08:41:36;26.90;33.00
17208;DHT22;8720;48.488;9.202;2023-05-27T08:44:05;26.90;33.20
17208;DHT22;8720;48.488;9.202;2023-05-27T08:46:34;26.90;33.50
17208;DHT22;8720;48.488;9.202;2023-05-27T08:49:04;26.90;33.50
17208;DHT22;8720;48.488;9.202;2023-05-27T08:51:35;27.00;33.40
17208;DHT22;8720;48.488;9.202;2023-05-27T08:54:08;27.00;33.40
17208;DHT22;8720;48.488;9.202;2023-05-27T08:56:39;27.10;33.50
17208;DHT22;8720;48.488;9.202;2023-05-27T08:59:10;27.00;33.20
17208;DHT22;8720;48.488;9.202;2023-05-27T09:01:39;27.00;33.30
17208;DHT22;8720;48.488;9.202;2023-05-27T09:04:09;26.90;33.30
17208;DHT22;8720;48.488;9.202;2023-05-27T09:06:36;26.80;33.70
17208;DHT22;8720;48.488;9.202;2023-05-27T09:09:06;26.70;33.60
17208;DHT22;8720;48.488;9.202;2023-05-27T09:11:33;26.60;33.60
17208;DHT22;8720;48.488;9.202;2023-05-27T09:14:07;26.50;33.70
17208;DHT22;8720;48.488;9.202;2023-05-27T09:16:34;26.40;33.70
17208;DHT22;8720;48.488;9.202;2023-05-27T09:19:15;26.20;33.50
17208;DHT22;8720;48.488;9.202;2023-05-27T09:21:43;26.10;33.60
17208;DHT22;8720;48.488;9.202;2023-05-27T09:24:10;26.00;34.10
17208;DHT22;8720;48.488;9.202;2023-05-27T09:26:38;25.90;34.00
17208;DHT22;8720;48.488;9.202;2023-05-27T09:29:07;25.80;34.20
17208;DHT22;8720;48.488;9.202;2023-05-27T09:31:38;25.70;34.00
17208;DHT22;8720;48.488;9.202;2023-05-27T09:34:10;25.60;34.30
17208;DHT22;8720;48.488;9.202;2023-05-27T09:36:42;25.50;34.40
17208;DHT22;8720;48.488;9.202;2023-05-27T09:39:12;25.50;34.50
17208;DHT22;8720;48.488;9.202;2023-05-27T09:41:40;25.40;34.40
17208;DHT22;8720;48.488;9.202;2023-05-27T09:44:09;25.40;34.80
17208;DHT22;8720;48.488;9.202;2023-05-27T09:46:36;25.40;34.60
17208;DHT22;8720;48.488;9.202;2023-05-27T09:49:04;25.40;35.00
17208;DHT22;8720;48.488;9.202;2023-05-27T09:51:33;25.40;34.60
17208;DHT22;8720;48.488;9.202;2023-05-27T09:54:03;25.40;34.60
17208;DHT22;8720;48.488;9.202;2023-05-27T09:56:33;25.40;34.30
17208;DHT22;8720;48.488;9.202;2023-05-27T09:59:01;25.40;34.10
17208;DHT22;8720;48.488;9.202;2023-05-27T10:01:33;25.40;34.00
17208;DHT22;8720;48.488;9.202;2023-05-27T10:04:03;25.30;34.00
17208;DHT22;8720;48.488;9.202;2023-05-27T10:06:31;25.30;34.20
17208;DHT22;8720;48.488;9.202;2023-05-27T10:09:01;25.20;34.20
17208;DHT22;8720;48.488;9.202;2023-05-27T10:11:30;25.20;34.20
17208;DHT22;8720;48.488;9.202;2023-05-27T10:13:59;25.20;34.10
17208;DHT22;8720;48.488;9.202;2023-05-27T10:16:27;25.20;35.00
17208;DHT22;8720;48.488;9.202;2023-05-27T10:18:56;25.20;34.40
17208;DHT22;8720;48.488;9.202;2023-05-27T10:21:27;25.20;34.30
17208;DHT22;8720;48.488;9.202;2023-05-27T10:23:57;25.20;34.40
17208;DHT22;8720;48.488;9.202;2023-05-27T10:26:32;25.30;34.90
17208;DHT22;8720;48.488;9.202;2023-05-27T10:29:07;25.30;33.80
17208;DHT22;8720;48.488;9.202;2023-05-27T10:31:36;25.40;33.50
17208;DHT22;8720;48.488;9.202;2023-05-27T10:34:12;25.40;33.40
17208;DHT22;8720;48.488;9.202;2023-05-27T10:36:40;25.40;33.00
17208;DHT22;8720;48.488;9.202;2023-05-27T10:39:13;25.40;33.20
17208;DHT22;8720;48.488;9.202;2023-05-27T10:41:42;25.40;32.60
17208;DHT22;8720;48.488;9.202;2023-05-27T10:44:10;25.40;32.80
17208;DHT22;8720;48.488;9.202;2023-05-27T10:46:39;25.40;32.40
17208;DHT22;8720;48.488;9.202;2023-05-27T10:49:13;25.40;32.40
17208;DHT22;8720;48.488;9.202;2023-05-27T10:51:43;25.40;31.90
17208;DHT22;8720;48.488;9.202;2023-05-27T10:54:10;25.30;32.40
17208;DHT22;8720;48.488;9.202;2023-05-27T10:56:48;25.30;32.60
17208;DHT22;8720;48.488;9.202;2023-05-27T10:59:20;25.30;32.70
17208;DHT22;8720;48.488;9.202;2023-05-27T11:01:51;25.20;32.80
17208;DHT22;8720;48.488;9.202;2023-05-27T11:04:21;25.20;32.90
17208;DHT22;8720;48.488;9.202;2023-05-27T11:06:58;25.20;33.10
17208;DHT22;8720;48.488;9.202;2023-05-27T11:09:26;25.20;32.70
17208;DHT22;8720;48.488;9.202;2023-05-27T11:11:55;25.30;33.70
17208;DHT22;8720;48.488;9.202;2023-05-27T11:14:23;25.30;33.30
17208;DHT22;8720;48.488;9.202;2023-05-27T11:16:50;25.30;32.80
17208;DHT22;8720;48.488;9.202;2023-05-27T11:19:18;25.30;32.40
17208;DHT22;8720;48.488;9.202;2023-05-27T11:21:47;25.30;32.40
17208;DHT22;8720;48.488;9.202;2023-05-27T11:24:15;25.30;32.00
17208;DHT22;8720;48.488;9.202;2023-05-27T11:26:43;25.30;32.10
17208;DHT22;8720;48.488;9.202;2023-05-27T11:29:13;25.30;32.30
17208;DHT22;8720;48.488;9.202;2023-05-27T11:31:45;25.30;32.40
17208;DHT22;8720;48.488;9.202;2023-05-27T11:34:13;25.30;32.80
17208;DHT22;8720;48.488;9.202;2023-05-27T11:36:44;25.30;32.70
17208;DHT22;8720;48.488;9.202;2023-05-27T11:39:13;25.30;32.50
17208;DHT22;8720;48.488;9.202;2023-05-27T11:41:49;25.30;32.30
17208;DHT22;8720;48.488;9.202;2023-05-27T11:44:18;25.40;32.20
17208;DHT22;8720;48.488;9.202;2023-05-27T11:46:46;25.40;32.20
17208;DHT22;8720;48.488;9.202;2023-05-27T11:49:15;25.40;32.10
17208;DHT22;8720;48.488;9.202;2023-05-27T11:51:45;25.30;32.10
17208;DHT22;8720;48.488;9.202;2023-05-27T11:54:20;25.30;32.10
17208;DHT22;8720;48.488;9.202;2023-05-27T11:56:49;25.40;32.10
17208;DHT22;8720;48.488;9.202;2023-05-27T11:59:18;25.40;32.00
17208;DHT22;8720;48.488;9.202;2023-05-27T12:01:46;25.40;31.90
17208;DHT22;8720;48.488;9.202;2023-05-27T12:04:13;25.40;32.00
17208;DHT22;8720;48.488;9.202;2023-05-27T12:06:41;25.50;32.30
17208;DHT22;8720;48.488;9.202;2023-05-27T12:09:11;25.50;31.80
17208;DHT22;8720;48.488;9.202;2023-05-27T12:11:41;25.50;31.80
17208;DHT22;8720;48.488;9.202;2023-05-27T12:14:08;25.50;31.80
17208;DHT22;8720;48.488;9.202;2023-05-27T12:16:36;25.60;31.90
17208;DHT22;8720;48.488;9.202;2023-05-27T12:19:03;25.60;31.60
17208;DHT22;8720;48.488;9.202;2023-05-27T12:21:31;25.60;31.20
17208;DHT22;8720;48.488;9.202;2023-05-27T12:23:58;25.60;30.80
17208;DHT22;8720;48.488;9.202;2023-05-27T12:26:25;25.60;30.50
17208;DHT22;8720;48.488;9.202;2023-05-27T12:28:54;25.50;30.40
17208;DHT22;8720;48.488;9.202;2023-05-27T12:31:21;25.50;30.60
17208;DHT22;8720;48.488;9.202;2023-05-27T12:33:50;25.50;30.90
17208;DHT22;8720;48.488;9.202;2023-05-27T12:36:17;25.50;31.20
17208;DHT22;8720;48.488;9.202;2023-05-27T12:38:44;25.60;31.50
17208;DHT22;8720;48.488;9.202;2023-05-27T12:41:12;25.60;31.80
17208;DHT22;8720;48.488;9.202;2023-05-27T12:43:39;25.70;31.70
17208;DHT22;8720;48.488;9.202;2023-05-27T12:46:08;25.70;31.70
17208;DHT22;8720;48.488;9.202;2023-05-27T12:48:35;25.70;31.80
17208;DHT22;8720;48.488;9.202;2023-05-27T12:51:02;25.70;31.80
17208;DHT22;8720;48.488;9.202;2023-05-27T12:53:30;25.70;31.90
17208;DHT22;8720;48.488;9.202;2023-05-27T12:55:57;25.70;32.10
17208;DHT22;8720;48.488;9.202;2023-05-27T12:58:24;25.70;31.60
17208;DHT22;8720;48.488;9.202;2023-05-27T13:00:52;25.60;31.60
17208;DHT22;8720;48.488;9.202;2023-05-27T13:03:21;25.60;31.60
17208;DHT22;8720;48.488;9.202;2023-05-27T13:05:48;25.60;31.70
17208;DHT22;8720;48.488;9.202;2023-05-27T13:08:15;25.60;31.80
17208;DHT22;8720;48.488;9.202;2023-05-27T13:10:43;25.60;31.60
17208;DHT22;8720;48.488;9.202;2023-05-27T13:13:10;25.50;31.70
17208;DHT22;8720;48.488;9.202;2023-05-27T13:15:37;25.50;31.60
17208;DHT22;8720;48.488;9.202;2023-05-27T13:18:05;25.50;31.80
17208;DHT22;8720;48.488;9.202;2023-05-27T13:20:34;25.50;31.80
17208;DHT22;8720;48.488;9.202;2023-05-27T13:23:01;25.60;31.80
17208;DHT22;8720;48.488;9.202;2023-05-27T13:25:29;25.60;31.60
17208;DHT22;8720;48.488;9.202;2023-05-27T13:27:57;25.60;31.40
17208;DHT22;8720;48.488;9.202;2023-05-27T13:30:24;25.70;31.50
17208;DHT22;8720;48.488;9.202;2023-05-27T13:32:53;25.70;31.40
17208;DHT22;8720;48.488;9.202;2023-05-27T13:35:20;25.70;32.10
17208;DHT22;8720;48.488;9.202;2023-05-27T13:37:49;25.70;31.50
17208;DHT22;8720;48.488;9.202;2023-05-27T13:40:16;25.80;31.40
17208;DHT22;8720;48.488;9.202;2023-05-27T13:42:44;25.80;31.30
17208;DHT22;8720;48.488;9.202;2023-05-27T13:45:12;25.80;31.30
17208;DHT22;8720;48.488;9.202;2023-05-27T13:47:39;25.80;31.40
17208;DHT22;8720;48.488;9.202;2023-05-27T13:50:09;25.80;31.40
17208;DHT22;8720;48.488;9.202;2023-05-27T13:52:37;25.80;31.10
17208;DHT22;8720;48.488;9.202;2023-05-27T13:55:07;25.70;30.90
17208;DHT22;8720;48.488;9.202;2023-05-27T13:57:35;25.70;31.10
17208;DHT22;8720;48.488;9.202;2023-05-27T14:00:02;25.70;31.20
17208;DHT22;8720;48.488;9.202;2023-05-27T14:02:32;25.70;31.30
17208;DHT22;8720;48.488;9.202;2023-05-27T14:04:59;25.70;31.90
17208;DHT22;8720;48.488;9.202;2023-05-27T14:07:27;25.70;31.00
17208;DHT22;8720;48.488;9.202;2023-05-27T14:09:55;25.70;31.00
17208;DHT22;8720;48.488;9.202;2023-05-27T14:12:23;25.70;31.10
17208;DHT22;8720;48.488;9.202;2023-05-27T14:14:51;25.70;31.30
17208;DHT22;8720;48.488;9.202;2023-05-27T14:17:18;25.70;31.20
17208;DHT22;8720;48.488;9.202;2023-05-27T14:19:46;25.80;31.30
17208;DHT22;8720;48.488;9.202;2023-05-27T14:22:13;25.80;31.00
17208;DHT22;8720;48.488;9.202;2023-05-27T14:24:41;25.80;30.70
17208;DHT22;8720;48.488;9.202;2023-05-27T14:27:08;25.80;30.80
17208;DHT22;8720;48.488;9.202;2023-05-27T14:29:36;25.80;30.70
17208;DHT22;8720;48.488;9.202;2023-05-27T14:32:05;25.80;30.70
17208;DHT22;8720;48.488;9.202;2023-05-27T14:34:33;25.80;30.70
17208;DHT22;8720;48.488;9.202;2023-05-27T14:37:00;25.80;30.60
17208;DHT22;8720;48.488;9.202;2023-05-27T14:39:27;25.80;30.90
17208;DHT22;8720;48.488;9.202;2023-05-27T14:41:57;25.80;30.90
17208;DHT22;8720;48.488;9.202;2023-05-27T14:44:25;25.80;30.60
17208;DHT22;8720;48.488;9.202;2023-05-27T14:46:53;25.80;30.90
17208;DHT22;8720;48.488;9.202;2023-05-27T14:49:20;25.80;30.70
17208;DHT22;8720;48.488;9.202;2023-05-27T14:51:48;25.80;30.60
17208;DHT22;8720;48.488;9.202;2023-05-27T14:54:15;25.80;30.40
17208;DHT22;8720;48.488;9.202;2023-05-27T14:56:42;25.80;30.30
17208;DHT22;8720;48.488;9.202;2023-05-27T14:59:10;25.80;30.30
17208;DHT22;8720;48.488;9.202;2023-05-27T15:01:37;25.80;30.10
17208;DHT22;8720;48.488;9.202;2023-05-27T15:04:06;25.80;30.00
17208;DHT22;8720;48.488;9.202;2023-05-27T15:06:33;25.80;30.10
17208;DHT22;8720;48.488;9.202;2023-05-27T15:09:01;25.80;29.90
17208;DHT22;8720;48.488;9.202;2023-05-27T15:11:28;25.80;29.90
17208;DHT22;8720;48.488;9.202;2023-05-27T15:13:56;25.80;30.00
17208;DHT22;8720;48.488;9.202;2023-05-27T15:16:25;25.80;30.00
17208;DHT22;8720;48.488;9.202;2023-05-27T15:18:53;25.80;30.00
17208;DHT22;8720;48.488;9.202;2023-05-27T15:21:22;25.80;30.00
17208;DHT22;8720;48.488;9.202;2023-05-27T15:23:49;25.80;29.90
17208;DHT22;8720;48.488;9.202;2023-05-27T15:26:17;25.80;29.90
17208;DHT22;8720;48.488;9.202;2023-05-27T15:28:44;25.80;29.90
17208;DHT22;8720;48.488;9.202;2023-05-27T15:31:11;25.80;30.20
17208;DHT22;8720;48.488;9.202;2023-05-27T15:33:39;25.80;29.70
17208;DHT22;8720;48.488;9.202;2023-05-27T15:36:06;25.70;29.60
17208;DHT22;8720;48.488;9.202;2023-05-27T15:38:36;25.80;29.60
17208;DHT22;8720;48.488;9.202;2023-05-27T15:41:03;25.80;29.50
17208;DHT22;8720;48.488;9.202;2023-05-27T15:43:31;25.80;29.60
17208;DHT22;8720;48.488;9.202;2023-05-27T15:45:58;25.80;29.60
17208;DHT22;8720;48.488;9.202;2023-05-27T15:48:26;25.80;29.60
17208;DHT22;8720;48.488;9.202;2023-05-27T15:50:53;25.80;29.50
17208;DHT22;8720;48.488;9.202;2023-05-27T15:53:21;25.80;29.50
17208;DHT22;8720;48.488;9.202;2023-05-27T15:55:50;25.80;29.40
17208;DHT22;8720;48.488;9.202;2023-05-27T15:58:17;25.80;29.30
17208;DHT22;8720;48.488;9.202;2023-05-27T16:00:44;25.80;29.50